Time;durP1;ratioP1;P1;durP2;ratioP2;P2;SDS_P1;SDS_P2;PMS_P1;PMS_P2;Temp;Humidity;BMP_temperature;BMP_pressure;BME280_temperature;BME280_humidity;BME280_pressure;Samples;Min_cycle;Max_cycle;Signal;HPM_P1;HPM_P2
2021/03/18 00:00:31;;;;;;;8.90;7.28;;;;;;;10.79;64.95;100252.89;1738250;82;21600;-48
2021/03/18 00:02:58;;;;;;;9.43;6.15;;;;;;;10.80;64.85;100246.77;1738256;82;21180;-49
2021/03/18 00:05:27;;;;;;;8.25;6.15;;;;;;;10.76;64.94;100251.66;1738323;82;21612;-44
2021/03/18 00:07:55;;;;;;;10.63;6.65;;;;;;;10.74;65.03;100257.36;1738054;82;21350;-43
2021/03/18 00:10:24;;;;;;;10.20;6.80;;;;;;;10.70;65.10;100257.50;1738019;82;21180;-46
2021/03/18 00:12:52;;;;;;;9.83;6.90;;;;;;;10.67;65.24;100262.81;1738476;82;21175;-44
2021/03/18 00:15:22;;;;;;;6.87;5.75;;;;;;;10.64;65.44;100261.14;1738117;82;21375;-48
2021/03/18 00:17:50;;;;;;;8.03;5.97;;;;;;;10.64;65.69;100263.75;1722296;82;21215;-47
2021/03/18 00:20:19;;;;;;;8.40;5.87;;;;;;;10.62;65.74;100263.80;1724607;82;21430;-47
2021/03/18 00:22:47;;;;;;;7.53;5.90;;;;;;;10.60;65.82;100264.73;1738044;82;21148;-47
2021/03/18 00:25:17;;;;;;;5.85;5.17;;;;;;;10.58;65.87;100262.62;1738037;82;21160;-48
2021/03/18 00:27:46;;;;;;;7.40;6.08;;;;;;;10.59;66.02;100263.05;1738121;82;21168;-44
2021/03/18 00:30:17;;;;;;;6.83;6.12;;;;;;;10.59;66.02;100265.65;1730053;82;21699;-44
2021/03/18 00:32:45;;;;;;;7.90;6.12;;;;;;;10.59;66.16;100263.05;1738280;82;21180;-47
2021/03/18 00:35:14;;;;;;;7.20;6.50;;;;;;;10.62;66.18;100265.55;1738072;82;21219;-42
2021/03/18 00:37:43;;;;;;;9.95;6.78;;;;;;;10.65;66.17;100270.67;1738267;82;21152;-44
2021/03/18 00:40:17;;;;;;;7.03;5.80;;;;;;;10.70;66.20;100265.30;1738454;82;21176;-46
2021/03/18 00:43:00;;;;;;;6.67;6.03;;;;;;;10.78;66.18;100266.78;1802043;78;22917;-48
2021/03/18 00:45:31;;;;;;;8.65;5.95;;;;;;;10.75;66.00;100266.89;1778332;80;21147;-44
2021/03/18 00:48:00;;;;;;;7.45;6.55;;;;;;;10.75;65.90;100268.20;1752070;81;21148;-44
2021/03/18 00:50:38;;;;;;;6.37;5.37;;;;;;;10.75;65.94;100268.20;1743625;81;21164;-46
2021/03/18 00:53:09;;;;;;;6.67;5.10;;;;;;;10.76;65.87;100269.88;1711279;83;21679;-47
2021/03/18 00:55:37;;;;;;;8.50;5.90;;;;;;;10.76;65.97;100268.58;1725251;83;21166;-44
2021/03/18 00:58:06;;;;;;;7.30;5.83;;;;;;;10.73;65.83;100271.29;1713944;83;21159;-47
2021/03/18 01:00:45;;;;;;;8.95;6.12;;;;;;;10.71;65.99;100274.83;1734923;81;21117;-43
2021/03/18 01:03:13;;;;;;;5.90;5.30;;;;;;;10.70;66.01;100267.91;1750839;81;21157;-44
2021/03/18 01:05:53;;;;;;;6.00;5.40;;;;;;;10.72;66.03;100273.48;1719854;82;21200;-44
2021/03/18 01:08:24;;;;;;;8.08;5.75;;;;;;;10.72;65.94;100271.31;1714737;83;21152;-43
2021/03/18 01:11:06;;;;;;;7.30;5.35;;;;;;;10.67;66.00;100267.58;1712957;83;21767;-44
2021/03/18 01:13:36;;;;;;;6.72;5.25;;;;;;;10.68;65.99;100265.36;1669943;85;21240;-47
2021/03/18 01:16:15;;;;;;;5.70;5.08;;;;;;;10.62;66.17;100268.14;1697843;83;21204;-48
2021/03/18 01:18:55;;;;;;;7.67;5.15;;;;;;;10.64;66.38;100264.61;1771572;79;22943;-43
2021/03/18 01:21:38;;;;;;;8.43;5.30;;;;;;;10.60;66.60;100268.64;1741943;82;21149;-47
2021/03/18 01:24:13;;;;;;;10.03;5.67;;;;;;;10.61;66.67;100267.76;1735767;82;21294;-48
2021/03/18 01:26:45;;;;;;;6.78;5.10;;;;;;;10.63;66.69;100271.99;1734514;82;21167;-43
2021/03/18 01:29:15;;;;;;;9.60;4.53;;;;;;;10.65;66.55;100268.89;1741326;82;21160;-46
2021/03/18 01:31:53;;;;;;;6.83;5.05;;;;;;;10.67;66.51;100270.17;1739068;82;21290;-42
2021/03/18 01:34:51;;;;;;;8.03;5.62;;;;;;;10.66;66.59;100268.45;1741105;82;21120;-44
2021/03/18 01:37:19;;;;;;;5.55;5.05;;;;;;;10.68;66.69;100273.16;1731976;82;21600;-51
2021/03/18 01:39:47;;;;;;;7.45;5.45;;;;;;;10.70;66.57;100270.51;1732061;82;21282;-44
2021/03/18 01:42:14;;;;;;;7.87;5.20;;;;;;;10.72;66.51;100274.77;1742398;82;21168;-48
2021/03/18 01:44:43;;;;;;;6.55;5.75;;;;;;;10.75;66.41;100279.91;1736643;82;21161;-44
2021/03/18 01:47:11;;;;;;;7.37;5.45;;;;;;;10.73;66.26;100273.89;1737352;82;21168;-48
2021/03/18 01:49:39;;;;;;;8.53;6.15;;;;;;;10.69;66.34;100273.59;1741472;82;21160;-43
2021/03/18 01:52:07;;;;;;;7.50;5.78;;;;;;;10.67;66.42;100280.58;1734562;82;21180;-43
2021/03/18 01:54:34;;;;;;;10.93;6.28;;;;;;;10.65;66.43;100271.97;1737553;82;21160;-45
2021/03/18 01:57:03;;;;;;;8.65;5.70;;;;;;;10.63;66.62;100276.37;1737036;81;21200;-44
2021/03/18 01:59:31;;;;;;;6.45;5.60;;;;;;;10.64;66.74;100280.22;1748079;82;21168;-42
2021/03/18 02:02:00;;;;;;;5.37;4.92;;;;;;;10.65;66.83;100281.08;1739653;82;21157;-49
2021/03/18 02:04:29;;;;;;;7.05;5.45;;;;;;;10.67;66.87;100277.98;1738201;82;21168;-43
2021/03/18 02:06:57;;;;;;;6.60;5.45;;;;;;;10.70;66.80;100284.37;1738774;82;21137;-49
2021/03/18 02:09:25;;;;;;;6.65;5.80;;;;;;;10.75;66.82;100284.25;1721199;82;21545;-47
2021/03/18 02:11:53;;;;;;;6.83;5.92;;;;;;;10.77;66.73;100282.02;1736524;82;21141;-49
2021/03/18 02:14:21;;;;;;;7.97;7.15;;;;;;;10.80;66.80;100292.31;1742207;81;21128;-46
2021/03/18 02:16:53;;;;;;;7.50;6.60;;;;;;;10.87;66.73;100292.55;1730885;82;21715;-44
2021/03/18 02:20:12;;;;;;;8.58;6.97;;;;;;;10.96;66.37;100288.37;1726401;82;21582;-46
2021/03/18 02:22:55;;;;;;;8.28;7.03;;;;;;;11.00;66.18;100295.63;1727185;82;21117;-47
2021/03/18 02:25:30;;;;;;;9.58;8.00;;;;;;;11.04;66.01;100305.91;1727190;82;21148;-46
2021/03/18 02:28:38;;;;;;;12.03;9.25;;;;;;;11.04;65.75;100298.10;1727342;82;21302;-44
2021/03/18 02:31:15;;;;;;;17.70;12.10;;;;;;;11.01;65.62;100311.20;1718692;82;21189;-48
2021/03/18 02:34:22;;;;;;;14.07;11.10;;;;;;;10.94;65.18;100313.57;1705469;82;21564;-44
2021/03/18 02:36:54;;;;;;;11.97;9.90;;;;;;;10.81;65.29;100321.36;1729798;82;21122;-42
2021/03/18 02:39:27;;;;;;;13.30;9.73;;;;;;;10.65;65.47;100314.42;1690657;84;21205;-44
2021/03/18 02:41:57;;;;;;;;;;;;;;;10.58;65.63;100315.96;1696606;84;21179;-43
2021/03/18 02:44:30;;;;;;;8.90;7.50;;;;;;;10.56;65.65;100316.45;1694419;84;20148;-42
2021/03/18 02:47:04;;;;;;;10.38;8.50;;;;;;;10.52;65.71;100323.94;1694425;84;21161;-44
2021/03/18 02:49:44;;;;;;;12.55;9.43;;;;;;;10.53;65.79;100326.97;1802634;79;23392;-44
2021/03/18 02:52:15;;;;;;;16.55;11.55;;;;;;;10.48;65.81;100324.92;1781460;80;21155;-43
2021/03/18 02:54:43;;;;;;;12.05;10.32;;;;;;;10.46;65.97;100331.92;1699231;83;21567;-42
2021/03/18 02:57:12;;;;;;;16.00;11.68;;;;;;;10.46;66.10;100331.92;1745547;81;21161;-42
2021/03/18 02:59:42;;;;;;;17.00;12.85;;;;;;;10.46;65.98;100331.92;1752100;81;21145;-48
2021/03/18 03:02:17;;;;;;;20.70;13.10;;;;;;;10.45;65.84;100337.56;1751671;81;21176;-47
2021/03/18 03:04:45;;;;;;;17.65;12.88;;;;;;;10.42;65.89;100338.11;1719261;83;21155;-48
2021/03/18 03:07:14;;;;;;;16.12;11.70;;;;;;;10.37;65.79;100337.36;1720078;81;21165;-47
2021/03/18 03:09:43;;;;;;;18.37;12.50;;;;;;;10.32;65.92;100334.05;1748558;81;21117;-50
2021/03/18 03:12:11;;;;;;;16.05;11.88;;;;;;;10.29;65.99;100335.42;1745009;81;21175;-43
2021/03/18 03:14:41;;;;;;;16.75;12.60;;;;;;;10.27;65.82;100341.97;1725624;83;21606;-46
2021/03/18 03:17:10;;;;;;;17.67;12.40;;;;;;;10.23;65.83;100347.29;1744509;81;21172;-43
2021/03/18 03:19:39;;;;;;;19.73;12.95;;;;;;;10.17;66.02;100344.41;1725668;83;21167;-44
2021/03/18 03:22:07;;;;;;;16.73;12.07;;;;;;;10.16;66.17;100345.77;1730057;83;21172;-44
2021/03/18 03:24:36;;;;;;;17.52;12.98;;;;;;;10.14;66.23;100350.98;1700653;83;21270;-47
2021/03/18 03:27:07;;;;;;;17.02;12.13;;;;;;;10.14;66.28;100355.35;1723906;83;21204;-44
2021/03/18 03:29:35;;;;;;;16.35;12.10;;;;;;;10.16;66.16;100346.59;1725349;83;21125;-43
2021/03/18 03:32:05;;;;;;;14.28;11.33;;;;;;;10.17;65.92;100355.25;1696847;83;21144;-46
2021/03/18 03:34:32;;;;;;;18.02;13.18;;;;;;;10.17;66.09;100355.25;1750569;81;21121;-44
2021/03/18 03:37:01;;;;;;;18.40;12.18;;;;;;;10.17;65.98;100359.16;1725506;82;21166;-49
2021/03/18 03:39:29;;;;;;;17.62;13.28;;;;;;;10.14;65.91;100363.16;1747250;81;21141;-48
2021/03/18 03:41:58;;;;;;;17.70;14.03;;;;;;;10.10;65.75;100362.36;1751078;81;21151;-48
2021/03/18 03:44:26;;;;;;;19.23;13.05;;;;;;;10.05;65.83;100368.55;1751238;81;21152;-47
2021/03/18 03:46:55;;;;;;;23.57;14.33;;;;;;;9.98;66.03;100361.78;1745242;81;21137;-43
2021/03/18 03:49:23;;;;;;;20.10;13.32;;;;;;;9.93;66.08;100363.66;1713315;83;21305;-48
2021/03/18 03:52:09;;;;;;;19.67;13.48;;;;;;;9.88;66.08;100366.37;1779565;81;21287;-44
2021/03/18 03:54:47;;;;;;;21.73;13.70;;;;;;;9.93;66.14;100364.52;1805549;79;23154;-43
2021/03/18 03:57:31;;;;;;;17.80;12.80;;;;;;;9.87;65.92;100363.81;1790164;80;21136;-47
2021/03/18 04:00:00;;;;;;;18.55;13.03;;;;;;;9.85;65.89;100361.23;1696547;84;21244;-44
2021/03/18 04:02:31;;;;;;;21.10;12.43;;;;;;;9.83;66.04;100371.67;1673508;84;21261;-48
2021/03/18 04:04:59;;;;;;;16.02;10.98;;;;;;;9.84;65.84;100367.34;1697858;84;21224;-48
2021/03/18 04:07:33;;;;;;;16.93;11.57;;;;;;;9.81;65.95;100368.26;1697663;84;21194;-47
2021/03/18 04:10:02;;;;;;;13.50;10.78;;;;;;;9.79;66.04;100373.94;1697551;84;21180;-46
2021/03/18 04:12:34;;;;;;;14.38;10.72;;;;;;;9.77;66.04;100374.42;1670446;85;21208;-44
2021/03/18 04:15:07;;;;;;;15.40;11.30;;;;;;;9.77;65.88;100379.62;1699523;84;21173;-47
2021/03/18 04:17:34;;;;;;;16.05;11.60;;;;;;;9.77;65.84;100382.66;1695305;84;21660;-44
2021/03/18 04:20:05;;;;;;;16.10;11.08;;;;;;;9.76;65.75;100390.92;1697618;84;21638;-42
2021/03/18 04:22:33;;;;;;;18.40;11.38;;;;;;;9.75;65.88;100389.63;1697142;84;21189;-41
2021/03/18 04:25:01;;;;;;;13.98;10.32;;;;;;;9.75;65.74;100402.19;1695507;84;21196;-48
2021/03/18 04:27:29;;;;;;;17.23;11.85;;;;;;;9.76;65.68;100405.21;1675289;84;21225;-49
2021/03/18 04:29:58;;;;;;;15.78;11.10;;;;;;;9.76;65.62;100402.61;1669018;85;21179;-43
2021/03/18 04:32:26;;;;;;;15.18;11.05;;;;;;;9.73;65.32;100403.97;1697771;84;21216;-42
2021/03/18 04:34:54;;;;;;;16.93;12.78;;;;;;;9.70;65.45;100411.86;1672996;84;21208;-45
2021/03/18 04:37:30;;;;;;;17.67;12.30;;;;;;;9.72;65.65;100410.07;1810700;79;22888;-46
2021/03/18 04:39:58;;;;;;;17.15;12.53;;;;;;;9.71;65.61;100402.29;1721226;83;21181;-43
2021/03/18 04:42:26;;;;;;;19.12;13.35;;;;;;;9.68;65.60;100425.33;1724129;83;21597;-48
2021/03/18 04:44:54;;;;;;;19.17;13.38;;;;;;;9.60;65.68;100423.79;1748163;81;21596;-42
2021/03/18 04:47:22;;;;;;;18.98;13.28;;;;;;;9.62;65.69;100424.14;1753398;81;21164;-45
2021/03/18 04:49:50;;;;;;;21.57;15.08;;;;;;;9.62;65.81;100425.44;1730953;83;21185;-42
2021/03/18 04:52:19;;;;;;;23.40;15.53;;;;;;;9.61;65.90;100426.34;1746722;81;21350;-47
2021/03/18 04:54:46;;;;;;;25.72;15.50;;;;;;;9.59;66.13;100430.72;1753068;81;21188;-50
2021/03/18 04:57:18;;;;;;;27.75;15.93;;;;;;;9.58;66.14;100443.28;1746204;81;21120;-43
2021/03/18 04:59:49;;;;;;;26.85;17.10;;;;;;;9.58;66.21;100440.69;1720428;83;21105;-50
2021/03/18 05:02:19;;;;;;;27.25;17.05;;;;;;;9.51;66.25;100440.86;1751583;81;21144;-47
2021/03/18 05:04:48;;;;;;;24.77;16.77;;;;;;;9.46;66.35;100450.05;1720304;83;21160;-49
2021/03/18 05:07:16;;;;;;;24.40;15.72;;;;;;;9.43;66.47;100452.73;1741962;81;21160;-42
2021/03/18 05:09:45;;;;;;;21.97;15.68;;;;;;;9.41;66.57;100453.65;1725409;83;21163;-44
2021/03/18 05:12:13;;;;;;;26.70;16.57;;;;;;;9.41;66.62;100455.81;1744394;81;21165;-47
2021/03/18 05:14:42;;;;;;;24.98;16.02;;;;;;;9.36;66.63;100458.94;1746493;81;21188;-45
2021/03/18 05:17:10;;;;;;;27.13;17.17;;;;;;;9.34;66.79;100468.94;1718615;81;21180;-47
2021/03/18 05:19:38;;;;;;;26.68;16.82;;;;;;;9.31;66.98;100463.83;1710882;83;21626;-44
2021/03/18 05:22:06;;;;;;;30.00;17.02;;;;;;;9.34;67.21;100471.09;1731914;81;21152;-43
2021/03/18 05:24:38;;;;;;;26.60;16.97;;;;;;;9.35;67.07;100476.72;1720557;83;21296;-48
2021/03/18 05:27:08;;;;;;;27.62;17.52;;;;;;;9.36;67.10;100479.70;1673505;84;21203;-43
2021/03/18 05:29:35;;;;;;;30.15;18.82;;;;;;;9.37;67.14;100482.73;1667721;85;21256;-50
2021/03/18 05:32:05;;;;;;;31.25;18.32;;;;;;;9.35;67.03;100481.91;1663822;85;21330;-43
2021/03/18 05:34:33;;;;;;;28.02;17.20;;;;;;;9.28;67.13;100495.89;1666445;85;21409;-43
2021/03/18 05:37:02;;;;;;;28.80;18.30;;;;;;;9.25;67.12;100484.29;1673816;85;21224;-42
2021/03/18 05:39:31;;;;;;;29.37;17.62;;;;;;;9.24;67.29;100491.65;1708118;83;21323;-44
2021/03/18 05:42:00;;;;;;;27.75;17.30;;;;;;;9.22;67.48;100491.26;1706215;83;21184;-47
2021/03/18 05:44:29;;;;;;;26.42;16.75;;;;;;;9.20;67.58;100499.09;1711439;83;21195;-44
2021/03/18 05:46:59;;;;;;;29.07;16.82;;;;;;;9.20;67.48;100500.39;1676759;85;21216;-44
2021/03/18 05:49:29;;;;;;;26.62;16.57;;;;;;;9.19;67.40;100497.83;1708606;83;21203;-42
2021/03/18 05:51:57;;;;;;;26.57;16.48;;;;;;;9.17;67.47;100503.03;1705136;83;21172;-45
2021/03/18 05:54:25;;;;;;;29.07;17.87;;;;;;;9.16;67.40;100504.37;1694361;83;21187;-47
2021/03/18 05:56:53;;;;;;;24.18;15.60;;;;;;;9.14;67.40;100513.48;1704133;83;21176;-47
2021/03/18 05:59:21;;;;;;;26.45;16.05;;;;;;;9.12;67.53;100509.20;1709945;82;21210;-48
2021/03/18 06:01:50;;;;;;;23.38;14.80;;;;;;;9.08;67.73;100505.83;1708230;82;21326;-48
2021/03/18 06:04:18;;;;;;;23.98;15.50;;;;;;;9.09;67.80;100515.31;1705611;83;21325;-43
2021/03/18 06:06:47;;;;;;;26.75;15.63;;;;;;;9.11;67.84;100517.42;1705572;83;21152;-43
2021/03/18 06:09:16;;;;;;;26.20;16.93;;;;;;;9.17;67.53;100519.08;1705300;83;21212;-48
2021/03/18 06:11:44;;;;;;;23.32;15.95;;;;;;;9.17;67.33;100528.16;1705672;83;21175;-44
2021/03/18 06:14:12;;;;;;;24.32;16.32;;;;;;;9.11;67.43;100525.22;1705340;83;21200;-50
2021/03/18 06:16:40;;;;;;;25.40;15.68;;;;;;;9.11;67.67;100531.70;1707015;83;21184;-48
2021/03/18 06:19:09;;;;;;;25.57;15.38;;;;;;;9.12;67.47;100529.54;1708485;83;21314;-42
2021/03/18 06:21:56;;;;;;;22.82;15.25;;;;;;;9.10;67.57;100537.80;1708422;83;21240;-47
2021/03/18 06:24:27;;;;;;;23.70;15.05;;;;;;;9.08;67.38;100542.16;1759891;80;21160;-42
2021/03/18 06:26:56;;;;;;;26.65;16.25;;;;;;;9.03;67.47;100549.63;1778293;80;21176;-42
2021/03/18 06:29:31;;;;;;;22.17;14.85;;;;;;;8.99;67.54;100543.62;1778787;80;21208;-44
2021/03/18 06:32:20;;;;;;;22.37;15.40;;;;;;;8.97;67.80;100535.01;1771923;80;21609;-47
2021/03/18 06:34:58;;;;;;;22.77;15.03;;;;;;;8.97;67.80;100554.47;1779258;80;21184;-47
2021/03/18 06:37:34;;;;;;;25.70;15.55;;;;;;;8.95;67.75;100557.10;1769789;80;21668;-44
2021/03/18 06:40:15;;;;;;;27.30;15.15;;;;;;;8.99;67.75;100559.19;1814657;77;23707;-45
2021/03/18 06:42:54;;;;;;;26.52;14.30;;;;;;;8.92;67.75;100557.61;1753656;81;21136;-42
2021/03/18 06:45:32;;;;;;;22.10;14.23;;;;;;;8.90;67.96;100559.37;1783663;80;21345;-43
2021/03/18 06:48:05;;;;;;;23.60;14.50;;;;;;;8.93;67.88;100567.09;1748285;81;21289;-46
2021/03/18 06:50:44;;;;;;;24.32;14.80;;;;;;;8.93;67.88;100573.58;1706618;84;21204;-42
2021/03/18 06:53:25;;;;;;;22.00;13.62;;;;;;;8.93;68.00;100567.09;1705224;84;21176;-49
2021/03/18 06:55:59;;;;;;;22.48;14.00;;;;;;;9.01;68.01;100574.30;1818241;79;22761;-47
2021/03/18 06:58:28;;;;;;;18.32;12.95;;;;;;;9.01;67.76;100574.30;1780871;80;21168;-43
2021/03/18 07:00:59;;;;;;;21.00;13.20;;;;;;;9.03;67.61;100576.42;1769875;80;21580;-42
2021/03/18 07:03:33;;;;;;;21.65;13.48;;;;;;;9.03;67.39;100579.01;1768786;80;21595;-48
2021/03/18 07:06:08;;;;;;;17.90;12.10;;;;;;;9.02;67.22;100587.70;1778780;80;21168;-45
2021/03/18 07:08:41;;;;;;;23.02;13.18;;;;;;;9.06;67.05;100578.97;1769599;79;23053;-49
2021/03/18 07:11:19;;;;;;;18.32;11.88;;;;;;;9.04;67.07;100591.12;1732034;82;21286;-43
2021/03/18 07:13:52;;;;;;;23.90;13.80;;;;;;;9.05;67.09;100591.52;1740293;82;21132;-48
2021/03/18 07:16:20;;;;;;;;;;;;;;;9.01;66.59;100597.65;1729426;82;21545;-50
2021/03/18 07:18:58;;;;;;;20.43;13.28;;;;;;;8.98;66.67;100596.42;1738690;82;20144;-46
2021/03/18 07:21:38;;;;;;;20.97;12.55;;;;;;;8.94;66.80;100602.09;1737794;82;21129;-44
2021/03/18 07:24:32;;;;;;;23.15;13.75;;;;;;;8.94;66.73;100607.74;1744634;82;21593;-43
2021/03/18 07:27:11;;;;;;;25.32;14.23;;;;;;;8.94;66.66;100609.04;1651467;85;21393;-43
2021/03/18 07:29:43;;;;;;;21.37;14.03;;;;;;;8.95;66.75;100613.33;1656969;86;21592;-42
2021/03/18 07:32:16;;;;;;;18.65;13.05;;;;;;;9.00;66.89;100602.44;1760185;79;22998;-44
2021/03/18 07:34:45;;;;;;;19.07;12.43;;;;;;;8.97;66.98;100615.45;1738961;82;21171;-46
2021/03/18 07:37:12;;;;;;;22.77;13.65;;;;;;;8.98;66.98;100615.89;1737149;82;21148;-43
2021/03/18 07:39:41;;;;;;;19.67;12.25;;;;;;;9.02;66.77;100620.14;1736051;82;21286;-46
2021/03/18 07:42:11;;;;;;;16.17;10.68;;;;;;;9.06;66.65;100616.61;1742691;82;21314;-41
2021/03/18 07:44:41;;;;;;;20.25;12.80;;;;;;;9.08;66.65;100616.56;1732004;82;21152;-47
2021/03/18 07:47:08;;;;;;;17.02;10.43;;;;;;;9.09;66.39;100632.11;1739845;82;21152;-44
2021/03/18 07:49:41;;;;;;;17.65;11.57;;;;;;;9.08;66.14;100626.52;1724576;82;21151;-43
2021/03/18 07:52:13;;;;;;;15.48;10.88;;;;;;;9.07;66.12;100629.98;1735882;82;21172;-47
2021/03/18 07:54:45;;;;;;;14.78;9.73;;;;;;;9.08;66.47;100626.52;1739466;82;21141;-44
2021/03/18 07:57:15;;;;;;;14.53;10.43;;;;;;;9.12;66.37;100625.58;1738967;81;21161;-49
2021/03/18 07:59:43;;;;;;;13.58;9.93;;;;;;;9.17;66.07;100634.13;1735543;82;21590;-44
2021/03/18 08:02:17;;;;;;;12.90;9.18;;;;;;;9.17;65.51;100639.31;1742306;81;21176;-42
2021/03/18 08:04:49;;;;;;;13.38;9.13;;;;;;;9.17;65.42;100637.19;1736295;82;21184;-43
2021/03/18 08:07:49;;;;;;;11.93;9.23;;;;;;;9.13;65.57;100644.15;1730713;82;21188;-46
2021/03/18 08:10:28;;;;;;;14.43;9.25;;;;;;;9.17;65.69;100644.97;1682664;84;21200;-43
2021/03/18 08:13:05;;;;;;;11.90;8.83;;;;;;;9.16;65.44;100649.30;1690246;84;21203;-45
2021/03/18 08:15:42;;;;;;;12.40;8.50;;;;;;;9.12;65.20;100645.05;1677330;85;21132;-48
2021/03/18 08:18:25;;;;;;;14.03;10.23;;;;;;;9.09;65.62;100645.09;1685503;84;21377;-47
2021/03/18 08:21:01;;;;;;;12.63;9.43;;;;;;;9.10;65.72;100644.22;1671094;85;21322;-43
2021/03/18 08:23:36;;;;;;;14.58;9.48;;;;;;;9.10;65.33;100648.55;1685570;84;21171;-48
2021/03/18 08:26:09;;;;;;;13.55;9.53;;;;;;;9.08;65.13;100652.91;1685592;84;21602;-42
2021/03/18 08:28:55;;;;;;;14.35;9.85;;;;;;;9.07;65.25;100657.23;1685701;84;21221;-47
2021/03/18 08:31:34;;;;;;;9.98;8.10;;;;;;;9.08;65.22;100657.66;1668150;85;21209;-44
2021/03/18 08:34:02;;;;;;;11.83;8.78;;;;;;;9.08;65.14;100658.96;1681683;84;21616;-45
2021/03/18 08:36:40;;;;;;;11.28;9.33;;;;;;;9.09;64.87;100667.15;1665926;85;21141;-42
2021/03/18 08:39:12;;;;;;;9.23;7.33;;;;;;;9.08;64.77;100664.16;1686894;84;21169;-44
2021/03/18 08:41:45;;;;;;;10.85;8.63;;;;;;;9.07;64.65;100665.02;1689237;84;21639;-42
2021/03/18 08:44:29;;;;;;;12.13;8.78;;;;;;;9.03;64.65;100665.52;1688840;84;21159;-47
2021/03/18 08:47:02;;;;;;;10.05;8.25;;;;;;;9.02;64.77;100673.34;1698343;82;21157;-49
2021/03/18 08:49:38;;;;;;;11.97;8.28;;;;;;;9.00;65.15;100673.81;1719511;82;21133;-48
2021/03/18 08:52:11;;;;;;;11.88;9.13;;;;;;;9.02;65.25;100679.83;1726327;82;21158;-42
2021/03/18 08:57:27;;;;;;;12.05;8.50;;;;;;;9.10;65.30;100683.16;1772111;79;22823;-42
2021/03/18 09:00:00;;;;;;;13.18;9.70;;;;;;;9.07;65.13;100680.59;1738786;82;21117;-43
2021/03/18 09:02:32;;;;;;;13.32;10.28;;;;;;;9.08;65.11;100687.95;1694086;85;21199;-47
2021/03/18 09:05:14;;;;;;;19.75;12.58;;;;;;;9.12;65.11;100690.91;1817523;77;22923;-44
2021/03/18 09:07:45;;;;;;;17.85;12.55;;;;;;;9.05;65.17;100694.04;1755444;81;21140;-48
2021/03/18 09:10:19;;;;;;;16.65;12.88;;;;;;;9.03;65.19;100695.80;1761393;81;21305;-49
2021/03/18 09:13:05;;;;;;;18.32;13.18;;;;;;;8.99;65.05;100703.23;1751268;81;21160;-47
2021/03/18 09:15:41;;;;;;;17.02;11.95;;;;;;;8.92;65.25;100708.11;1753231;81;21529;-47
2021/03/18 09:18:28;;;;;;;17.82;12.33;;;;;;;8.88;65.36;100705.16;1753120;81;21144;-43
2021/03/18 09:21:12;;;;;;;14.63;11.40;;;;;;;8.88;65.36;100710.34;1744211;81;21365;-46
2021/03/18 09:23:42;;;;;;;14.60;11.95;;;;;;;8.90;65.45;100714.60;1751710;81;21227;-42
2021/03/18 09:26:13;;;;;;;14.63;11.73;;;;;;;8.86;65.68;100717.30;1757662;81;21155;-42
2021/03/18 09:28:50;;;;;;;13.95;10.48;;;;;;;8.84;65.76;100713.86;1757793;81;21152;-44
2021/03/18 09:31:22;;;;;;;17.15;12.45;;;;;;;8.88;65.71;100718.13;1764796;81;21297;-46
2021/03/18 09:33:52;;;;;;;13.75;10.60;;;;;;;8.88;65.59;100724.61;1761011;81;21159;-43
2021/03/18 09:36:25;;;;;;;15.60;11.30;;;;;;;8.93;65.73;100720.19;1759482;81;21161;-44
2021/03/18 09:39:09;;;;;;;17.23;12.37;;;;;;;8.95;65.23;100727.52;1763678;81;21156;-47
2021/03/18 09:41:46;;;;;;;17.75;12.47;;;;;;;8.91;64.81;100729.73;1761253;81;21180;-43
2021/03/18 09:44:21;;;;;;;16.42;11.80;;;;;;;8.83;65.03;100733.75;1759496;81;21157;-48
2021/03/18 09:46:52;;;;;;;14.40;11.33;;;;;;;8.88;65.28;100736.29;1754932;81;21293;-49
2021/03/18 09:49:30;;;;;;;16.80;12.53;;;;;;;8.89;65.08;100726.31;1759891;81;21550;-42
2021/03/18 09:52:03;;;;;;;15.05;11.50;;;;;;;8.87;65.12;100726.77;1761218;81;21160;-43
2021/03/18 09:54:31;;;;;;;16.25;12.37;;;;;;;8.89;65.04;100736.69;1759511;81;21164;-43
2021/03/18 09:57:06;;;;;;;15.48;12.68;;;;;;;8.89;64.90;100735.39;1767975;81;21112;-42
2021/03/18 09:59:35;;;;;;;16.42;13.20;;;;;;;8.86;64.96;100735.45;1657775;85;21645;-43
2021/03/18 10:02:05;;;;;;;17.02;11.50;;;;;;;8.83;64.72;100744.56;1644034;85;21200;-46
2021/03/18 10:04:41;;;;;;;19.00;13.32;;;;;;;8.81;65.06;100744.60;1651910;86;21321;-42
2021/03/18 10:07:14;;;;;;;17.75;13.58;;;;;;;8.87;65.21;100742.34;1808365;79;22952;-42
2021/03/18 10:09:46;;;;;;;15.93;12.73;;;;;;;8.83;65.28;100748.45;1777333;80;21611;-42
2021/03/18 10:12:18;;;;;;;16.80;12.85;;;;;;;8.86;65.25;100748.43;1784453;80;21117;-44
2021/03/18 10:14:56;;;;;;;;;;;;;;;8.87;65.16;100760.51;1780326;80;21156;-43
2021/03/18 10:17:35;;;;;;;18.15;13.13;;;;;;;8.88;65.32;100751.86;1783866;80;20228;-42
2021/03/18 10:20:12;;;;;;;17.10;12.00;;;;;;;8.88;65.03;100763.53;1782686;80;21132;-48
2021/03/18 10:22:46;;;;;;;18.27;14.75;;;;;;;8.91;64.92;100763.47;1779182;80;21176;-47
2021/03/18 10:25:20;;;;;;;17.25;14.03;;;;;;;8.92;64.77;100765.20;1741001;82;21190;-47
2021/03/18 10:27:56;;;;;;;16.60;13.15;;;;;;;8.89;64.78;100771.29;1741224;82;21274;-42
2021/03/18 10:30:31;;;;;;;17.30;13.50;;;;;;;8.91;64.49;100764.77;1768193;79;23074;-43
2021/03/18 10:33:11;;;;;;;17.07;13.13;;;;;;;8.83;64.39;100767.48;1732254;82;21585;-43
2021/03/18 10:35:43;;;;;;;16.62;13.50;;;;;;;8.80;64.51;100774.44;1732213;82;21608;-44
2021/03/18 10:38:15;;;;;;;;;;;;;;;8.77;64.72;100772.77;1752118;82;21165;-43
2021/03/18 10:40:44;;;;;;;16.13;13.10;;;;;;;8.79;64.63;100774.03;1738899;82;20139;-42
2021/03/18 10:43:25;;;;;;;14.35;12.07;;;;;;;8.76;64.57;100775.36;1737556;82;21128;-42
2021/03/18 10:45:59;;;;;;;14.38;12.55;;;;;;;8.73;65.01;100770.23;1738752;82;21145;-42
2021/03/18 10:48:36;;;;;;;15.43;12.33;;;;;;;8.74;65.06;100769.34;1767328;79;23371;-43
2021/03/18 10:51:12;;;;;;;15.28;12.93;;;;;;;8.74;64.82;100779.71;1746030;82;21549;-46
2021/03/18 10:53:42;;;;;;;14.53;12.25;;;;;;;8.76;64.96;100772.77;1682447;84;21247;-43
2021/03/18 10:56:13;;;;;;;12.28;10.70;;;;;;;8.79;64.73;100777.92;1688542;84;21135;-41
2021/03/18 10:58:42;;;;;;;13.62;12.10;;;;;;;8.82;64.56;100777.44;1685784;84;21174;-45
2021/03/18 11:01:13;;;;;;;13.38;11.35;;;;;;;8.82;64.18;100779.20;1687565;84;21229;-46
2021/03/18 11:03:43;;;;;;;13.08;11.48;;;;;;;8.80;64.35;100782.22;1683965;84;21167;-45
2021/03/18 11:06:22;;;;;;;13.32;11.12;;;;;;;8.80;64.57;100783.08;1689916;84;21157;-50
2021/03/18 11:08:55;;;;;;;16.17;12.00;;;;;;;8.83;64.29;100789.97;1688606;84;21198;-45
2021/03/18 11:11:31;;;;;;;14.58;12.68;;;;;;;8.83;63.96;100777.00;1682650;84;21191;-43
2021/03/18 11:14:07;;;;;;;14.45;12.25;;;;;;;8.84;63.74;100784.75;1685634;84;21183;-46
2021/03/18 11:16:36;;;;;;;14.05;10.98;;;;;;;8.85;63.65;100788.22;1685443;84;21140;-49
2021/03/18 11:19:07;;;;;;;12.80;11.03;;;;;;;8.81;63.54;100794.33;1685657;84;21174;-45
2021/03/18 11:21:37;;;;;;;15.23;10.60;;;;;;;8.77;63.73;100787.47;1671408;85;21164;-41
2021/03/18 11:24:17;;;;;;;11.85;10.38;;;;;;;8.79;63.77;100788.30;1686737;84;21136;-47
2021/03/18 11:26:53;;;;;;;13.72;11.18;;;;;;;8.83;63.72;100789.97;1682147;84;21239;-49
2021/03/18 11:29:25;;;;;;;11.20;9.98;;;;;;;8.87;63.46;100793.81;1680655;84;21316;-47
2021/03/18 11:31:56;;;;;;;12.88;11.05;;;;;;;8.90;63.33;100793.75;1688782;84;21623;-47
2021/03/18 11:34:27;;;;;;;12.78;10.30;;;;;;;8.94;63.29;100798.48;1688987;84;21631;-46
2021/03/18 11:36:59;;;;;;;11.15;9.88;;;;;;;8.96;63.01;100798.02;1687614;84;21580;-46
2021/03/18 11:39:29;;;;;;;11.15;9.58;;;;;;;8.98;63.15;100803.58;1671765;85;21179;-42
2021/03/18 11:41:57;;;;;;;13.28;10.18;;;;;;;8.97;63.41;100809.66;1686892;84;21235;-41
2021/03/18 11:44:27;;;;;;;10.32;9.33;;;;;;;9.00;63.38;100816.55;1723671;82;21723;-46
2021/03/18 11:47:10;;;;;;;10.78;8.90;;;;;;;8.99;63.07;100812.23;1732953;82;21121;-43